Flugplatz Seedorf

Für EDXS sind keine METAR/TAF Berichte vorhanden.
Es werden die Flugwettermeldungen vom Flugplatz Hamburg-Finkenwerder in 44 km Entfernung angezeigt.

Bericht für EDHI

vom 01.12. um 08:20 UTC

Wind 15 kt aus 210° in Böen 28 kt

Sichtweite 6000 m

schwacher Regen

aufgebrochene Bewölkung in 800 ft

Temperatur 8.0°C

Taupunkt 8.0°C

Luftfeuchtigkeit 100%

Luftdruck 986 hPa

EDHI 010820Z 21015G28KT 6000 -RA BKN008 08/08 Q0986

Prognose für EDHI

vom 01.12. um 05:00 UTC

Zwischen 06:00 UTC und 15:00 UTC

Wind 15 kt aus 220° in Böen 25 kt

Sichtweite 10 km oder mehr

aufgebrochene Bewölkung in 600 ft


Zwischen 06:00 UTC und 09:00 UTC zeitweise mit einer Wahrscheinlichkeit von 30%

Sichtweite 4500 m

schwacher Regen


Zwischen 06:00 und 09:00 UTC übergehend zu

Wind 20 kt aus 220° in Böen 35 kt

Sichtweite 10 km oder mehr

aufgelockert bewölkt in 1200 ft

aufgebrochene Bewölkung in 1500 ft


Zwischen 06:00 UTC und 15:00 UTC zeitweise

aufgebrochene Bewölkung in 1200 ft


Zwischen 12:00 UTC und 15:00 UTC zeitweise mit einer Wahrscheinlichkeit von 30%

Wind 25 kt aus 240° in Böen 45 kt

TAF EDHI 010500Z 0106/0115 22015G25KT 9999 BKN006 BECMG 0106/0109 22020G35KT SCT012 BKN015 TEMPO 0106/0115 BKN012 PROB30 TEMPO 0106/0109 4500 -RA PROB30 TEMPO 0112/0115 24025G45KT
Impressum